Time;durP1;ratioP1;P1;durP2;ratioP2;P2;SDS_P1;SDS_P2;PMS_P1;PMS_P2;Temp;Humidity;BMP_temperature;BMP_pressure;BME280_temperature;BME280_humidity;BME280_pressure;Samples;Min_cycle;Max_cycle;Signal;HPM_P1;HPM_P2
2022/10/22 00:00:55;;;;;;;4.93;2.92;;;13.70;99.90;;;;;;4925123;28;20031;-40
2022/10/22 00:03:21;;;;;;;5.32;2.63;;;13.70;99.90;;;;;;4930292;29;20485;-40
2022/10/22 00:05:47;;;;;;;3.10;2.80;;;13.70;99.90;;;;;;4931945;29;20349;-40
2022/10/22 00:08:13;;;;;;;5.85;2.80;;;13.70;99.90;;;;;;4931554;29;20028;-35
2022/10/22 00:10:40;;;;;;;5.20;3.22;;;13.70;99.90;;;;;;4929655;29;20032;-38
2022/10/22 00:13:05;;;;;;;4.22;3.08;;;13.70;99.90;;;;;;4931199;29;20035;-39
2022/10/22 00:15:31;;;;;;;4.05;2.63;;;13.60;99.90;;;;;;4926776;29;20386;-40
2022/10/22 00:17:56;;;;;;;2.65;2.45;;;13.60;99.90;;;;;;4930297;29;20050;-41
2022/10/22 00:20:22;;;;;;;5.32;2.45;;;13.60;99.90;;;;;;4929138;29;20086;-39
2022/10/22 00:22:48;;;;;;;2.75;2.28;;;13.60;99.90;;;;;;4929027;29;20046;-40
2022/10/22 00:25:14;;;;;;;3.08;2.42;;;13.60;99.90;;;;;;4928870;29;20568;-40
2022/10/22 00:27:39;;;;;;;2.75;2.22;;;13.60;99.90;;;;;;4928375;29;20042;-39
2022/10/22 00:30:06;;;;;;;4.13;2.78;;;13.60;99.90;;;;;;4928234;29;20039;-39
2022/10/22 00:32:31;;;;;;;2.80;2.15;;;13.60;99.90;;;;;;4924947;28;20124;-37
2022/10/22 00:34:57;;;;;;;2.90;2.55;;;13.60;99.90;;;;;;4928101;29;20481;-41
2022/10/22 00:37:22;;;;;;;4.15;3.10;;;13.60;99.90;;;;;;4929161;29;20068;-40
2022/10/22 00:39:48;;;;;;;3.88;2.70;;;13.60;99.90;;;;;;4926969;29;20024;-37
2022/10/22 00:42:24;;;;;;;2.83;2.20;;;13.60;99.90;;;;;;4926737;29;20393;-40
2022/10/22 00:45:05;;;;;;;3.63;2.50;;;13.70;99.90;;;;;;4930464;29;20031;-36
2022/10/22 00:47:56;;;;;;;3.45;2.60;;;13.70;99.90;;;;;;4926617;29;20051;-39
2022/10/22 00:50:31;;;;;;;4.93;2.55;;;13.70;99.90;;;;;;4919100;29;20036;-39
2022/10/22 00:52:57;;;;;;;2.45;2.20;;;13.70;99.90;;;;;;4933391;29;20514;-40
2022/10/22 00:55:25;;;;;;;3.83;2.30;;;13.70;99.90;;;;;;4927081;29;20027;-39
2022/10/22 00:57:53;;;;;;;3.90;2.25;;;13.70;99.90;;;;;;4931888;29;20020;-40
2022/10/22 01:00:19;;;;;;;5.53;2.70;;;13.80;99.90;;;;;;4928561;28;20437;-39
2022/10/22 01:02:45;;;;;;;4.70;2.38;;;13.70;99.90;;;;;;4927722;29;20066;-38
2022/10/22 01:05:11;;;;;;;2.75;2.45;;;13.70;99.90;;;;;;4926590;29;20051;-38
2022/10/22 01:07:43;;;;;;;4.05;2.42;;;13.70;99.90;;;;;;4929971;29;20035;-39
2022/10/22 01:10:30;;;;;;;5.75;2.80;;;13.70;99.90;;;;;;4927570;29;20537;-37
2022/10/22 01:13:10;;;;;;;2.40;2.10;;;13.70;99.90;;;;;;4925177;29;20019;-37
2022/10/22 01:16:04;;;;;;;2.97;2.30;;;13.70;99.90;;;;;;4927066;29;20151;-39
2022/10/22 01:18:37;;;;;;;3.25;2.30;;;13.70;99.90;;;;;;4929059;29;20594;-39
2022/10/22 01:21:21;;;;;;;4.78;2.40;;;13.70;99.90;;;;;;4928958;29;20047;-37
2022/10/22 01:24:22;;;;;;;3.33;2.50;;;13.70;99.90;;;;;;4926988;29;20047;-39
2022/10/22 01:27:25;;;;;;;3.83;2.30;;;13.70;99.90;;;;;;4929252;28;20109;-39
2022/10/22 01:29:56;;;;;;;3.83;2.60;;;13.70;99.90;;;;;;4926511;29;20042;-39
2022/10/22 01:32:24;;;;;;;4.70;2.85;;;13.70;99.90;;;;;;4927560;28;20043;-37
2022/10/22 01:34:55;;;;;;;4.22;3.03;;;13.70;99.90;;;;;;4928534;29;20035;-36
2022/10/22 01:37:24;;;;;;;3.17;2.40;;;13.70;99.90;;;;;;4928852;29;20510;-36
2022/10/22 01:39:51;;;;;;;4.53;2.67;;;13.70;99.90;;;;;;4929972;29;20039;-39
2022/10/22 01:42:17;;;;;;;5.18;2.22;;;13.60;99.90;;;;;;4926888;29;20414;-39
2022/10/22 01:44:43;;;;;;;2.20;2.00;;;13.70;99.90;;;;;;4925793;29;20046;-39
2022/10/22 01:47:14;;;;;;;1.92;1.70;;;13.60;99.90;;;;;;4928269;29;20056;-39
2022/10/22 01:49:59;;;;;;;2.33;1.75;;;13.50;99.90;;;;;;4926993;29;20024;-39
2022/10/22 01:52:58;;;;;;;1.55;1.45;;;13.50;99.90;;;;;;4927332;29;20418;-36
2022/10/22 01:55:48;;;;;;;2.63;2.28;;;13.40;99.90;;;;;;4925879;29;20028;-39
2022/10/22 01:58:23;;;;;;;2.25;1.90;;;13.40;99.90;;;;;;4899441;29;20513;-39
2022/10/22 02:01:08;;;;;;;3.20;1.80;;;13.40;99.90;;;;;;4927016;28;20024;-36
2022/10/22 02:03:54;;;;;;;3.13;1.90;;;13.40;99.90;;;;;;4930099;29;20035;-34
2022/10/22 02:06:23;;;;;;;2.33;2.00;;;13.40;99.90;;;;;;4924633;29;20050;-40
2022/10/22 02:08:50;;;;;;;2.83;2.00;;;13.40;99.90;;;;;;4926149;29;20035;-40
2022/10/22 02:11:16;;;;;;;4.65;2.10;;;13.40;99.90;;;;;;4927296;29;20647;-38
2022/10/22 02:13:46;;;;;;;2.22;2.00;;;13.40;99.90;;;;;;4929064;29;20042;-40
2022/10/22 02:16:17;;;;;;;1.73;1.50;;;13.30;99.90;;;;;;4926837;29;20396;-38
2022/10/22 02:18:45;;;;;;;6.43;1.88;;;13.20;99.90;;;;;;4930181;29;20501;-39
2022/10/22 02:21:11;;;;;;;3.70;1.52;;;13.30;99.90;;;;;;4928491;29;20433;-39
2022/10/22 02:23:37;;;;;;;1.67;1.58;;;13.20;99.90;;;;;;4926044;29;20046;-39
2022/10/22 02:26:15;;;;;;;2.05;1.67;;;13.20;99.90;;;;;;4929880;29;20039;-38
2022/10/22 02:28:51;;;;;;;2.50;1.40;;;13.20;99.90;;;;;;4931144;29;20518;-39
2022/10/22 02:31:39;;;;;;;2.90;1.70;;;13.20;99.90;;;;;;4928022;29;20629;-39
2022/10/22 02:34:09;;;;;;;3.80;1.70;;;13.30;99.90;;;;;;4928044;29;20038;-39
2022/10/22 02:36:37;;;;;;;3.00;1.88;;;13.30;99.90;;;;;;4926866;29;20163;-39
2022/10/22 02:39:04;;;;;;;2.55;2.00;;;13.30;99.90;;;;;;4925351;29;20028;-38
2022/10/22 02:41:30;;;;;;;2.40;2.20;;;13.30;99.90;;;;;;4932481;29;20035;-39
2022/10/22 02:43:56;;;;;;;2.55;2.30;;;13.30;99.90;;;;;;4930084;29;20032;-39
2022/10/22 02:46:22;;;;;;;4.00;2.67;;;13.30;99.90;;;;;;4931351;29;20027;-36
2022/10/22 02:48:48;;;;;;;3.35;2.00;;;13.20;99.90;;;;;;4931109;29;20175;-40
2022/10/22 02:51:14;;;;;;;3.65;2.38;;;13.20;99.90;;;;;;4931292;29;20503;-38
2022/10/22 02:53:40;;;;;;;3.60;2.40;;;13.20;99.90;;;;;;4931086;29;20039;-40
2022/10/22 02:56:06;;;;;;;5.18;2.42;;;13.20;99.90;;;;;;4932008;29;20413;-35
2022/10/22 02:58:31;;;;;;;3.20;2.35;;;13.20;99.90;;;;;;4931858;29;20024;-39
2022/10/22 03:00:57;;;;;;;3.17;1.92;;;13.10;99.90;;;;;;4932405;28;20034;-37
2022/10/22 03:03:23;;;;;;;3.17;2.38;;;13.20;99.90;;;;;;4931369;29;20091;-40
2022/10/22 03:05:50;;;;;;;4.88;1.90;;;13.10;99.90;;;;;;4930515;29;20032;-40
2022/10/22 03:08:16;;;;;;;3.95;2.10;;;13.10;99.90;;;;;;4930216;29;20034;-40
2022/10/22 03:10:42;;;;;;;2.35;2.15;;;13.10;99.90;;;;;;4932900;29;20031;-39
2022/10/22 03:13:08;;;;;;;2.97;1.80;;;13.10;99.90;;;;;;4931144;29;20417;-39
2022/10/22 03:15:34;;;;;;;2.58;2.30;;;13.10;99.90;;;;;;4934228;29;20039;-39
2022/10/22 03:17:59;;;;;;;2.95;1.73;;;13.00;99.90;;;;;;4931108;29;20480;-40
2022/10/22 03:20:25;;;;;;;3.03;1.90;;;13.00;99.90;;;;;;4932368;29;20123;-38
2022/10/22 03:22:51;;;;;;;2.35;1.80;;;12.90;99.90;;;;;;4931067;29;20508;-39
2022/10/22 03:25:21;;;;;;;1.48;1.38;;;12.90;99.90;;;;;;4931063;29;22223;-39
2022/10/22 03:27:48;;;;;;;1.83;1.30;;;12.90;99.90;;;;;;4931436;29;20103;-39
2022/10/22 03:30:13;;;;;;;2.50;1.40;;;12.90;99.90;;;;;;4928698;29;20039;-38
2022/10/22 03:32:39;;;;;;;2.20;1.33;;;12.90;99.90;;;;;;4923954;29;20499;-39
2022/10/22 03:35:05;;;;;;;2.22;1.30;;;12.90;99.90;;;;;;4928633;29;20035;-39
2022/10/22 03:37:31;;;;;;;1.35;1.25;;;12.90;99.90;;;;;;4927785;29;20023;-40
2022/10/22 03:39:57;;;;;;;1.33;1.23;;;12.90;99.90;;;;;;4932449;29;20043;-39
2022/10/22 03:42:23;;;;;;;1.02;1.02;;;12.80;99.90;;;;;;4929954;29;20468;-40
2022/10/22 03:44:49;;;;;;;1.60;1.40;;;12.80;99.90;;;;;;4929000;29;20032;-40
2022/10/22 03:47:14;;;;;;;1.75;1.40;;;12.80;99.90;;;;;;4931481;29;20062;-36
2022/10/22 03:49:40;;;;;;;2.10;1.40;;;12.90;99.90;;;;;;4928866;29;20032;-40
2022/10/22 03:52:07;;;;;;;2.67;1.35;;;12.80;99.90;;;;;;4932586;29;20394;-38
2022/10/22 03:54:33;;;;;;;1.38;1.27;;;12.80;99.90;;;;;;4925507;29;20031;-40
2022/10/22 03:56:58;;;;;;;1.70;1.15;;;12.80;99.90;;;;;;4931125;29;20027;-39
2022/10/22 03:59:24;;;;;;;1.73;1.50;;;12.90;99.90;;;;;;4929459;29;20106;-39
2022/10/22 04:01:49;;;;;;;1.63;1.30;;;12.80;99.90;;;;;;4925954;29;20035;-39
2022/10/22 04:04:15;;;;;;;1.83;1.30;;;12.80;99.90;;;;;;4926692;29;20032;-39
2022/10/22 04:06:40;;;;;;;3.10;1.30;;;12.80;99.90;;;;;;4927919;29;20111;-37
2022/10/22 04:09:06;;;;;;;1.60;1.50;;;12.70;99.90;;;;;;4928984;29;20036;-38
2022/10/22 04:11:32;;;;;;;1.65;1.05;;;12.70;99.90;;;;;;4926558;29;20091;-37
2022/10/22 04:13:57;;;;;;;1.55;1.45;;;12.70;99.90;;;;;;4929982;29;20031;-39
2022/10/22 04:16:23;;;;;;;0.95;0.95;;;12.70;99.90;;;;;;4932157;29;20032;-39
2022/10/22 04:18:49;;;;;;;2.47;1.40;;;12.60;99.90;;;;;;4930547;29;20026;-39
2022/10/22 04:21:18;;;;;;;1.50;1.38;;;12.60;99.90;;;;;;4928161;29;20039;-40
2022/10/22 04:23:48;;;;;;;1.40;1.30;;;12.70;99.90;;;;;;4931349;29;20079;-39
2022/10/22 04:26:15;;;;;;;2.00;1.10;;;12.70;99.90;;;;;;4930568;29;20476;-40
2022/10/22 04:28:41;;;;;;;3.38;0.90;;;12.70;99.90;;;;;;4929819;28;20027;-39
2022/10/22 04:31:12;;;;;;;1.55;0.80;;;12.50;99.90;;;;;;4928017;28;20122;-39
2022/10/22 04:33:39;;;;;;;1.38;1.05;;;12.50;99.90;;;;;;4930013;29;21731;-39
2022/10/22 04:36:16;;;;;;;0.73;0.73;;;12.50;99.90;;;;;;4926668;29;20171;-40
2022/10/22 04:38:43;;;;;;;1.15;0.93;;;12.50;99.90;;;;;;4931496;29;20027;-39
2022/10/22 04:41:17;;;;;;;1.08;1.00;;;12.50;99.90;;;;;;4927187;29;20047;-40
2022/10/22 04:43:44;;;;;;;0.93;0.90;;;12.50;99.90;;;;;;4929742;29;20042;-40
2022/10/22 04:46:11;;;;;;;2.03;1.08;;;12.50;99.90;;;;;;4930274;29;20593;-40
2022/10/22 04:48:41;;;;;;;0.98;0.98;;;12.50;99.90;;;;;;4933232;29;20047;-39
2022/10/22 04:51:09;;;;;;;1.05;0.98;;;12.50;99.90;;;;;;4927555;29;20043;-39
2022/10/22 04:53:35;;;;;;;1.08;0.80;;;12.50;99.90;;;;;;4930894;29;20530;-39
2022/10/22 04:56:10;;;;;;;1.20;1.10;;;12.50;99.90;;;;;;4930313;29;20427;-40
2022/10/22 04:58:37;;;;;;;0.80;0.80;;;12.40;99.90;;;;;;4932009;29;20036;-37
2022/10/22 05:01:27;;;;;;;0.98;0.95;;;12.50;99.90;;;;;;4929686;28;20043;-39
2022/10/22 05:03:55;;;;;;;2.45;1.08;;;12.50;99.90;;;;;;4924861;29;20032;-40
2022/10/22 05:06:22;;;;;;;3.13;1.00;;;12.40;99.90;;;;;;4928189;29;20036;-40
2022/10/22 05:08:52;;;;;;;0.82;0.77;;;12.40;99.90;;;;;;4928566;29;20035;-40
2022/10/22 05:11:20;;;;;;;2.15;0.90;;;12.40;99.90;;;;;;4928962;29;20047;-40
2022/10/22 05:13:47;;;;;;;1.23;1.00;;;12.40;99.90;;;;;;4930981;29;20036;-39
2022/10/22 05:16:13;;;;;;;1.00;1.00;;;12.30;99.90;;;;;;4929423;29;20087;-40
2022/10/22 05:18:41;;;;;;;0.93;0.93;;;12.40;99.90;;;;;;4928873;29;20507;-40
2022/10/22 05:21:12;;;;;;;1.52;0.90;;;12.50;99.90;;;;;;4926288;29;20031;-40
2022/10/22 05:23:38;;;;;;;1.55;0.80;;;12.40;99.90;;;;;;4923290;29;20047;-38
2022/10/22 05:26:06;;;;;;;2.58;1.00;;;12.40;99.90;;;;;;4926419;29;20398;-40
2022/10/22 05:28:32;;;;;;;0.93;0.90;;;12.40;99.90;;;;;;4929879;29;20039;-40
2022/10/22 05:30:59;;;;;;;1.95;0.70;;;12.40;99.90;;;;;;4925548;28;20048;-40
2022/10/22 05:33:26;;;;;;;3.72;1.00;;;12.40;99.90;;;;;;4928084;29;20035;-40
2022/10/22 05:35:51;;;;;;;1.23;0.85;;;12.30;99.90;;;;;;4928081;29;20117;-40
2022/10/22 05:38:18;;;;;;;1.40;0.70;;;12.40;99.90;;;;;;4927648;29;20039;-40
2022/10/22 05:40:44;;;;;;;2.10;0.95;;;12.30;99.90;;;;;;4931789;29;20028;-40
2022/10/22 05:43:10;;;;;;;3.65;0.68;;;12.30;99.90;;;;;;4925029;29;20035;-38
2022/10/22 05:45:40;;;;;;;0.77;0.73;;;12.30;99.90;;;;;;4927267;29;20509;-40
2022/10/22 05:48:07;;;;;;;0.52;0.52;;;12.30;99.90;;;;;;4924867;29;20519;-39
2022/10/22 05:50:37;;;;;;;1.55;0.60;;;12.40;99.90;;;;;;4926809;29;20122;-39
2022/10/22 05:53:04;;;;;;;4.28;0.80;;;12.30;99.90;;;;;;4930888;29;20063;-39
2022/10/22 05:55:35;;;;;;;1.40;0.70;;;12.30;99.90;;;;;;4925994;29;20038;-39
2022/10/22 05:58:04;;;;;;;2.72;0.60;;;12.30;99.90;;;;;;4926033;28;20028;-38
2022/10/22 06:00:30;;;;;;;0.60;0.60;;;12.30;99.90;;;;;;4942902;28;20523;-39
2022/10/22 06:02:56;;;;;;;1.33;0.65;;;12.30;99.90;;;;;;4925248;28;20132;-39
2022/10/22 06:05:21;;;;;;;0.60;0.60;;;12.30;99.90;;;;;;4928391;29;20505;-39
2022/10/22 06:07:47;;;;;;;1.70;0.70;;;12.30;99.90;;;;;;4929175;29;20102;-40
2022/10/22 06:10:16;;;;;;;1.00;0.80;;;12.30;99.90;;;;;;4927736;29;20043;-39
2022/10/22 06:12:41;;;;;;;0.68;0.68;;;12.30;99.90;;;;;;4929737;29;20515;-38
2022/10/22 06:15:10;;;;;;;0.47;0.47;;;12.30;99.90;;;;;;4928102;29;20032;-40
2022/10/22 06:17:36;;;;;;;0.80;0.80;;;12.30;99.90;;;;;;4927261;29;20023;-39
2022/10/22 06:20:01;;;;;;;2.35;0.50;;;12.30;99.90;;;;;;4927899;29;20091;-37
2022/10/22 06:22:27;;;;;;;1.55;0.60;;;12.30;99.90;;;;;;4929799;29;20036;-38
2022/10/22 06:24:53;;;;;;;1.60;0.88;;;12.30;99.90;;;;;;4932197;29;20031;-37
2022/10/22 06:27:18;;;;;;;2.95;1.27;;;12.40;99.90;;;;;;4930012;29;20043;-40
2022/10/22 06:29:44;;;;;;;1.70;0.80;;;12.40;99.90;;;;;;4930763;29;20028;-37
2022/10/22 06:32:09;;;;;;;1.73;0.63;;;12.40;99.90;;;;;;4929987;28;20032;-40
2022/10/22 06:34:35;;;;;;;1.65;0.50;;;12.40;99.90;;;;;;4930541;29;20043;-40
2022/10/22 06:37:00;;;;;;;0.70;0.63;;;12.30;99.90;;;;;;4929383;29;20026;-39
2022/10/22 06:39:26;;;;;;;1.48;0.70;;;12.40;99.90;;;;;;4929959;29;20040;-39
2022/10/22 06:41:52;;;;;;;1.23;0.60;;;12.40;99.90;;;;;;4936476;29;20095;-38
2022/10/22 06:44:20;;;;;;;1.38;0.50;;;12.40;99.90;;;;;;4933262;29;20074;-38
2022/10/22 06:46:51;;;;;;;2.15;0.60;;;12.40;99.90;;;;;;4928552;29;20051;-38
2022/10/22 06:49:19;;;;;;;0.50;0.47;;;12.40;99.90;;;;;;4931002;29;20461;-39
2022/10/22 06:51:49;;;;;;;1.30;0.70;;;12.40;99.90;;;;;;4929079;29;20035;-40
2022/10/22 06:54:14;;;;;;;1.25;0.75;;;12.40;99.90;;;;;;4929825;29;20066;-40
2022/10/22 06:56:40;;;;;;;1.70;0.47;;;12.40;99.90;;;;;;4928680;29;20028;-38
2022/10/22 06:59:06;;;;;;;0.60;0.60;;;12.40;99.90;;;;;;4931142;29;20031;-40
2022/10/22 07:01:33;;;;;;;1.48;0.60;;;12.40;99.90;;;;;;4932691;28;20087;-39
2022/10/22 07:04:00;;;;;;;0.50;0.50;;;12.40;99.90;;;;;;4928677;29;20032;-36
2022/10/22 07:06:27;;;;;;;0.90;0.50;;;12.40;99.90;;;;;;4927502;29;20714;-39
2022/10/22 07:08:54;;;;;;;2.42;0.65;;;12.40;99.90;;;;;;4929404;29;20063;-38
2022/10/22 07:11:22;;;;;;;0.95;0.82;;;12.50;99.90;;;;;;4923136;29;20519;-38
2022/10/22 07:13:48;;;;;;;1.40;0.50;;;12.50;99.90;;;;;;4927818;29;20031;-39
2022/10/22 07:16:15;;;;;;;0.60;0.60;;;12.60;99.90;;;;;;4931896;29;20544;-40
2022/10/22 07:18:42;;;;;;;1.65;0.40;;;12.70;99.90;;;;;;4931951;29;20032;-39
2022/10/22 07:21:09;;;;;;;0.43;0.43;;;12.60;99.90;;;;;;4931050;29;20404;-40
2022/10/22 07:23:34;;;;;;;0.85;0.50;;;12.70;99.90;;;;;;4930815;29;20027;-40
2022/10/22 07:26:01;;;;;;;1.63;0.50;;;12.70;99.90;;;;;;4931631;29;20035;-38
2022/10/22 07:28:27;;;;;;;0.50;0.50;;;12.70;99.90;;;;;;4927149;29;20037;-40
2022/10/22 07:30:53;;;;;;;2.38;1.20;;;12.70;99.90;;;;;;4933049;28;20050;-38
2022/10/22 07:33:19;;;;;;;0.77;0.65;;;12.80;99.90;;;;;;4931139;29;20114;-40
2022/10/22 07:35:44;;;;;;;0.50;0.50;;;12.80;99.90;;;;;;4930587;29;20035;-39
2022/10/22 07:38:10;;;;;;;0.57;0.52;;;12.80;99.90;;;;;;4926114;29;20040;-39
2022/10/22 07:40:36;;;;;;;1.40;0.50;;;12.80;99.90;;;;;;4941730;28;20822;-39
2022/10/22 07:43:02;;;;;;;0.90;0.88;;;12.80;99.90;;;;;;4933133;29;20118;-40
2022/10/22 07:45:28;;;;;;;1.65;0.68;;;12.90;99.90;;;;;;4926513;29;20032;-40
2022/10/22 07:47:53;;;;;;;0.40;0.40;;;12.90;99.90;;;;;;4926560;29;20050;-39
2022/10/22 07:50:19;;;;;;;1.90;0.70;;;12.90;99.90;;;;;;4928279;29;20493;-39
2022/10/22 07:52:45;;;;;;;1.30;0.60;;;12.90;99.90;;;;;;4929151;29;20060;-39
2022/10/22 07:55:12;;;;;;;1.42;0.50;;;12.90;99.90;;;;;;4929202;29;20114;-39
2022/10/22 07:57:38;;;;;;;0.55;0.55;;;12.90;99.90;;;;;;4927614;29;20051;-40
2022/10/22 08:00:06;;;;;;;1.05;0.90;;;12.90;99.90;;;;;;4928275;29;20118;-40
2022/10/22 08:02:31;;;;;;;3.05;0.80;;;13.00;99.90;;;;;;4926871;28;20044;-39
2022/10/22 08:04:58;;;;;;;0.75;0.57;;;13.00;99.90;;;;;;4943974;28;21266;-38
2022/10/22 08:07:24;;;;;;;0.60;0.60;;;13.10;99.90;;;;;;4927274;29;20413;-37
2022/10/22 08:09:49;;;;;;;1.10;0.60;;;13.10;99.90;;;;;;4927929;29;20102;-36
2022/10/22 08:12:15;;;;;;;2.47;0.70;;;13.10;99.90;;;;;;4928840;29;20591;-40
2022/10/22 08:14:41;;;;;;;1.20;0.70;;;13.20;99.90;;;;;;4926552;29;20100;-32
2022/10/22 08:17:06;;;;;;;0.50;0.50;;;13.20;99.90;;;;;;4928050;29;20035;-39
2022/10/22 08:19:34;;;;;;;0.70;0.70;;;13.20;99.90;;;;;;4927904;29;20071;-39
2022/10/22 08:21:59;;;;;;;0.50;0.50;;;13.30;99.90;;;;;;4927990;29;20400;-39
2022/10/22 08:24:25;;;;;;;1.00;0.70;;;13.20;99.90;;;;;;4926777;29;20031;-38
2022/10/22 08:26:55;;;;;;;0.85;0.57;;;13.30;99.90;;;;;;4927583;29;20027;-40
2022/10/22 08:29:24;;;;;;;1.92;0.88;;;13.30;99.90;;;;;;4928104;29;20063;-39
2022/10/22 08:31:50;;;;;;;1.25;0.70;;;13.30;99.90;;;;;;4938764;28;20050;-38
2022/10/22 08:34:16;;;;;;;0.60;0.60;;;13.30;99.90;;;;;;4946130;28;20038;-40
2022/10/22 08:36:41;;;;;;;1.95;1.00;;;13.30;99.90;;;;;;4948854;28;20023;-37
2022/10/22 08:39:07;;;;;;;1.98;0.90;;;13.30;99.90;;;;;;4949504;28;20593;-39
2022/10/22 08:41:40;;;;;;;2.08;0.90;;;13.40;99.90;;;;;;4949204;28;20139;-39
2022/10/22 08:44:54;;;;;;;0.80;0.80;;;13.40;99.90;;;;;;4946489;28;20050;-37
2022/10/22 08:47:50;;;;;;;1.20;1.05;;;13.50;99.90;;;;;;4938050;28;20045;-40
2022/10/22 08:50:34;;;;;;;0.80;0.80;;;13.50;99.90;;;;;;4936987;28;20139;-38
2022/10/22 08:53:05;;;;;;;1.10;0.80;;;13.50;99.90;;;;;;4946449;28;20388;-39
2022/10/22 08:55:32;;;;;;;1.02;0.77;;;13.50;99.90;;;;;;4947757;28;20560;-38
2022/10/22 08:58:24;;;;;;;2.20;0.88;;;13.50;99.90;;;;;;4944658;28;20409;-39
2022/10/22 09:01:13;;;;;;;1.13;0.77;;;13.60;99.90;;;;;;4942924;28;20492;-38
2022/10/22 09:04:29;;;;;;;0.95;0.90;;;13.60;99.90;;;;;;4928524;29;20075;-40
2022/10/22 09:06:57;;;;;;;3.22;0.80;;;13.60;99.90;;;;;;4920295;29;20054;-36
2022/10/22 09:09:28;;;;;;;2.47;0.70;;;13.70;99.90;;;;;;4925492;29;20039;-39
2022/10/22 09:11:57;;;;;;;0.85;0.85;;;13.70;99.90;;;;;;4927078;29;20035;-39
2022/10/22 09:14:24;;;;;;;0.75;0.70;;;13.80;99.90;;;;;;4926176;29;20337;-38
2022/10/22 09:17:12;;;;;;;1.52;0.80;;;13.80;99.90;;;;;;4926584;29;20023;-39
2022/10/22 09:20:01;;;;;;;1.05;1.00;;;13.80;99.90;;;;;;4925031;29;20047;-40
2022/10/22 09:22:52;;;;;;;1.40;0.85;;;13.90;99.90;;;;;;4924247;29;20520;-40
2022/10/22 09:25:20;;;;;;;2.75;0.80;;;13.90;99.90;;;;;;4924378;29;20038;-41
2022/10/22 09:27:46;;;;;;;0.73;0.73;;;14.00;99.90;;;;;;4924933;29;20044;-36
2022/10/22 09:30:24;;;;;;;2.58;0.73;;;14.10;99.90;;;;;;4925923;29;20311;-41
2022/10/22 09:33:08;;;;;;;1.70;0.80;;;14.10;99.90;;;;;;4926674;28;20584;-39
2022/10/22 09:35:43;;;;;;;0.75;0.75;;;14.20;99.90;;;;;;4927491;29;20078;-40
2022/10/22 09:38:08;;;;;;;0.80;0.80;;;14.20;99.90;;;;;;4928586;29;20024;-38
2022/10/22 09:40:47;;;;;;;1.70;0.90;;;14.30;99.90;;;;;;4927764;29;20038;-39
2022/10/22 09:43:13;;;;;;;;;;;14.30;99.90;;;;;;4927021;29;20858;-40
2022/10/22 09:45:40;;;;;;;0.80;0.80;;;14.40;99.90;;;;;;4925153;29;20292;-41
2022/10/22 09:48:33;;;;;;;0.63;0.63;;;14.50;99.90;;;;;;4926830;29;20047;-40
2022/10/22 09:51:19;;;;;;;1.33;0.80;;;14.60;99.90;;;;;;4926581;29;20393;-40
2022/10/22 09:53:53;;;;;;;0.82;0.82;;;14.70;99.90;;;;;;4924307;29;20386;-40
2022/10/22 09:56:35;;;;;;;3.45;1.00;;;14.80;99.90;;;;;;4930825;29;20499;-40
2022/10/22 09:59:02;;;;;;;1.85;0.95;;;14.80;99.90;;;;;;4926624;29;20537;-39
2022/10/22 10:01:39;;;;;;;1.13;1.02;;;14.90;99.90;;;;;;4928327;29;20127;-39
2022/10/22 10:04:09;;;;;;;1.25;1.00;;;15.00;99.90;;;;;;4929946;29;20036;-40
2022/10/22 10:06:37;;;;;;;1.00;1.00;;;14.90;99.90;;;;;;4930398;29;20513;-40
2022/10/22 10:09:15;;;;;;;2.67;0.85;;;14.90;99.90;;;;;;4927359;29;20136;-40
2022/10/22 10:11:44;;;;;;;1.08;0.98;;;15.00;99.90;;;;;;4929539;29;20032;-39
2022/10/22 10:14:39;;;;;;;1.80;1.05;;;15.00;99.90;;;;;;4929898;29;20452;-41
2022/10/22 10:17:32;;;;;;;0.70;0.70;;;15.00;99.90;;;;;;4929702;29;20051;-40
2022/10/22 10:19:58;;;;;;;0.88;0.88;;;14.90;99.90;;;;;;4925973;29;20020;-39
2022/10/22 10:22:26;;;;;;;1.77;1.20;;;15.00;99.90;;;;;;4928143;29;20102;-38
2022/10/22 10:25:26;;;;;;;2.05;0.90;;;15.00;99.90;;;;;;4930267;29;20027;-41
2022/10/22 10:28:23;;;;;;;2.22;1.42;;;15.00;99.90;;;;;;4930409;29;20114;-41
2022/10/22 10:30:57;;;;;;;0.70;0.70;;;15.10;99.90;;;;;;4928408;28;20067;-39
2022/10/22 10:33:49;;;;;;;1.30;1.20;;;15.20;99.90;;;;;;4929804;29;20034;-33
2022/10/22 10:36:32;;;;;;;1.63;1.00;;;15.20;99.90;;;;;;4931006;29;20039;-39
2022/10/22 10:39:16;;;;;;;1.05;0.95;;;15.20;99.90;;;;;;4929790;29;20086;-40
2022/10/22 10:41:54;;;;;;;0.70;0.70;;;15.10;99.90;;;;;;4929123;29;20370;-37
2022/10/22 10:44:20;;;;;;;;;;;15.10;99.90;;;;;;4932346;29;20032;-40
2022/10/22 10:46:57;;;;;;;2.22;0.90;;;15.10;99.90;;;;;;4931083;29;19911;-38
2022/10/22 10:49:25;;;;;;;1.70;1.10;;;15.10;99.90;;;;;;4929655;29;20520;-38
2022/10/22 10:51:51;;;;;;;;;;;15.20;99.90;;;;;;4930810;29;20295;-39
2022/10/22 10:54:28;;;;;;;1.30;0.80;;;15.20;99.90;;;;;;4927456;29;20534;-40
2022/10/22 10:56:54;;;;;;;1.33;0.90;;;15.20;99.90;;;;;;4930479;29;20035;-40
2022/10/22 10:59:48;;;;;;;0.80;0.80;;;15.30;99.90;;;;;;4930360;29;20401;-41
2022/10/22 11:02:35;;;;;;;0.80;0.80;;;15.30;99.90;;;;;;4923657;29;20099;-41
2022/10/22 11:05:07;;;;;;;0.57;0.57;;;15.50;99.90;;;;;;4930977;29;20055;-39
2022/10/22 11:07:41;;;;;;;0.93;0.70;;;15.60;99.90;;;;;;4929514;29;20028;-40
2022/10/22 11:10:26;;;;;;;0.63;0.60;;;15.60;99.90;;;;;;4929292;29;20058;-40
2022/10/22 11:12:59;;;;;;;0.82;0.80;;;15.60;99.90;;;;;;4926059;29;20024;-39
2022/10/22 11:15:32;;;;;;;0.95;0.70;;;15.70;99.90;;;;;;4928804;29;20027;-37
2022/10/22 11:18:34;;;;;;;1.00;1.00;;;15.70;99.90;;;;;;4928098;29;20055;-37
2022/10/22 11:21:06;;;;;;;2.00;0.90;;;15.90;99.90;;;;;;4928762;29;20142;-38
2022/10/22 11:23:54;;;;;;;1.25;0.90;;;16.00;99.90;;;;;;4929578;29;20059;-39
2022/10/22 11:26:36;;;;;;;1.35;0.90;;;16.00;99.90;;;;;;4927272;29;20027;-37
2022/10/22 11:29:05;;;;;;;0.80;0.80;;;16.10;99.90;;;;;;4926111;29;20401;-40
2022/10/22 11:31:31;;;;;;;0.73;0.73;;;16.10;99.90;;;;;;4933396;28;20047;-40
2022/10/22 11:34:09;;;;;;;0.95;0.90;;;16.10;99.90;;;;;;4950852;28;20082;-40
2022/10/22 11:36:35;;;;;;;;;;;16.20;99.90;;;;;;4946010;28;20039;-38
2022/10/22 11:39:03;;;;;;;0.68;0.65;;;16.50;99.90;;;;;;4949712;28;20062;-36
2022/10/22 11:41:30;;;;;;;1.40;0.65;;;16.60;99.90;;;;;;4947560;28;20408;-40
2022/10/22 11:44:04;;;;;;;0.70;0.63;;;16.80;99.90;;;;;;4947021;28;20024;-38
2022/10/22 11:47:07;;;;;;;1.80;0.80;;;17.00;99.90;;;;;;4946080;28;20389;-37
2022/10/22 11:49:45;;;;;;;1.15;0.90;;;17.00;99.90;;;;;;4946572;28;20090;-41
2022/10/22 11:52:39;;;;;;;1.40;0.80;;;17.10;99.90;;;;;;4949074;28;20381;-38
2022/10/22 11:55:33;;;;;;;0.70;0.70;;;17.10;99.90;;;;;;4956893;28;20035;-39
2022/10/22 11:58:20;;;;;;;0.70;0.70;;;17.20;99.90;;;;;;4948746;28;20037;-41
2022/10/22 12:00:47;;;;;;;2.35;0.82;;;17.40;99.90;;;;;;4948081;28;20045;-40
2022/10/22 12:03:31;;;;;;;1.17;0.83;;;17.40;99.90;;;;;;4926862;29;20027;-39
2022/10/22 12:06:38;;;;;;;0.50;0.50;;;17.40;99.90;;;;;;4927742;29;20036;-40
2022/10/22 12:09:06;;;;;;;0.70;0.70;;;17.20;99.90;;;;;;4922973;28;20122;-41
2022/10/22 12:11:44;;;;;;;0.75;0.73;;;17.10;99.90;;;;;;4924895;29;20039;-35
2022/10/22 12:14:25;;;;;;;1.55;0.77;;;17.20;99.90;;;;;;4930274;29;20105;-40
2022/10/22 12:16:56;;;;;;;1.98;1.20;;;17.20;99.90;;;;;;4926876;29;21735;-39
2022/10/22 12:19:21;;;;;;;1.27;0.80;;;17.30;99.90;;;;;;4929833;29;20039;-41
2022/10/22 12:21:54;;;;;;;1.30;0.70;;;17.30;99.90;;;;;;4928818;29;20035;-40
2022/10/22 12:24:22;;;;;;;1.55;0.52;;;17.40;99.90;;;;;;4928188;29;20032;-39
2022/10/22 12:26:51;;;;;;;3.28;0.90;;;17.30;99.90;;;;;;4928083;29;20039;-36
2022/10/22 12:29:18;;;;;;;0.68;0.68;;;17.40;99.90;;;;;;4929443;29;20058;-40
2022/10/22 12:31:46;;;;;;;0.63;0.63;;;17.50;99.90;;;;;;4925610;28;20528;-37
2022/10/22 12:34:17;;;;;;;4.05;1.10;;;17.50;99.90;;;;;;4912046;29;20058;-40
2022/10/22 12:36:45;;;;;;;1.85;0.90;;;17.60;99.90;;;;;;4928130;29;20542;-41
2022/10/22 12:39:27;;;;;;;0.88;0.82;;;17.70;99.90;;;;;;4927064;29;20460;-41
2022/10/22 12:41:53;;;;;;;0.90;0.80;;;17.70;99.90;;;;;;4928243;29;20039;-41
2022/10/22 12:44:19;;;;;;;1.10;1.00;;;17.70;99.90;;;;;;4939039;29;20401;-38
2022/10/22 12:46:47;;;;;;;2.08;0.50;;;17.60;99.90;;;;;;4924514;29;20019;-40
2022/10/22 12:49:22;;;;;;;0.68;0.68;;;17.70;99.90;;;;;;4928621;29;20043;-37
2022/10/22 12:51:48;;;;;;;0.55;0.55;;;17.80;99.90;;;;;;4928291;29;20413;-39
2022/10/22 12:54:28;;;;;;;0.85;0.80;;;17.80;99.90;;;;;;4925287;29;20035;-39
2022/10/22 12:56:55;;;;;;;2.35;0.80;;;17.80;99.90;;;;;;4928031;29;20102;-38
2022/10/22 12:59:34;;;;;;;1.67;0.90;;;17.90;99.90;;;;;;4927594;29;20027;-37
2022/10/22 13:02:01;;;;;;;1.17;0.73;;;17.80;99.90;;;;;;4924504;29;20740;-37
2022/10/22 13:04:33;;;;;;;0.60;0.60;;;17.80;99.90;;;;;;4924988;29;20027;-37
2022/10/22 13:07:36;;;;;;;1.13;0.60;;;17.70;99.90;;;;;;4926299;29;20123;-39
2022/10/22 13:10:13;;;;;;;2.10;0.60;;;17.70;99.90;;;;;;4925004;29;20060;-38